AirNav   Air Wisconsin Up To $57,000 Bonus
 
 605 users online  

OR88 Jantzer Heliport
Grants Pass, Oregon, USA

GOING TO GRANTS PASS?


FAA INFORMATION EFFECTIVE 05 DECEMBER 2019

Location

FAA Identifier: OR88
Lat/Long: 42-26-24.4200N 123-16-48.2000W
42-26.407000N 123-16.803333W
42.4401167,-123.2800556
(estimated)
Elevation: 980 ft. / 299 m (estimated)
Variation: 18E (1995)
From city: 3 miles NW of GRANTS PASS, OR
Time zone: UTC -8 (UTC -7 during Daylight Saving Time)
Zip code: 97526

Heliport Operations

Heliport use: Private use. Permission required prior to landing
Activation date: 06/2000
Control tower: no
ARTCC: SEATTLE CENTER
FSS: MC MINNVILLE FLIGHT SERVICE STATION
Attendance: ON CALL
Wind indicator: yes
Segmented circle: no

Heliport Communications

WX AWOS-3PT at 3S8 (6 nm NW): 120.0 (541-955-3392)
WX ASOS at MFR (18 nm E): 127.25 (541-776-1238)

Nearby radio navigation aids

VOR radial/distance  VOR name  Freq  Var
OEDr243/16.4ROGUE VALLEY VORTAC113.6019E

 
NDB name  Hdg/Dist  Freq  Var  ID
MEDFORD263/18.035616EMEF -- . ..-.

Heliport Services

Runway Information

Helipad H1

Dimensions: 21 x 21 ft. / 6 x 6 m
Surface: concrete
Traffic pattern: leftleft

Heliport Ownership and Management from official FAA records

Ownership: Privately-owned
Owner: JANTZER & SONS LOGGING
PO BOX 1586
GRANTS PASS, OR 97528
Phone 541-472-1100
Manager: GARY JANTZER
PO BOX 1586
GRANTS PASS, OR 97528
Phone 541-944-8515

Heliport Operational Statistics

Aircraft based on the field: 2
Helicopters: 2
    

Additional Remarks

A52-H1 35 FT POWERLINES 2000 FT S, 50 FT POWERLINES 1600 FT E, AND 25 FT BLDG 700 FT E OF HELIPAD.
FOR CD CTC CASCADE APCH AT 541-607-4676/4675, WHEN APCH CLSD CTC SEATTLE ARTCC AT 253-351-3694.

Instrument Procedures

There are no published instrument procedures at OR88.

Some nearby airports with instrument procedures:

3S8 - Grants Pass Airport (6 nm NW)
KMFR - Rogue Valley International - Medford Airport (18 nm E)
KRBG - Roseburg Regional Airport (48 nm N)
KSIY - Siskiyou County Airport (54 nm SE)
KCEC - Jack Mc Namara Field Airport (58 nm SW)
 
Loc | Ops | Rwys | IFR | FBO | Links
Com | Nav | Svcs | Stats | Notes
Area around OR88 (Jantzer Heliport)
 
Road maps at: MapQuest Bing Google
 
Aerial photo
WARNING: Photo may not be current or correct
Aerial photo of OR88 (Jantzer Heliport)
Do you have a better or more recent aerial photo of Jantzer Heliport that you would like to share? If so, please send us your photo.

 
Sectional chart

 
Airport distance calculator
Flying to Jantzer Heliport? Find the distance to fly.

From to OR88

Sunrise and sunset
Times for 15-Dec-2019
 Local
(UTC-8)
 Zulu
(UTC)
Morning civil twilight07:0515:05
Sunrise07:3715:37
Sunset16:4000:40
Evening civil twilight17:1201:12

Current date and time
Zulu (UTC)  16-Dec-2019 05:19:55
Local (UTC-8)  15-Dec-2019 21:19:55
 
METAR
K3S8 
6nm NW 
160455Z AUTO 00000KT 10SM OVC015 05/04 A3034 RMK AO2
KSXT 
10nm N 
160456Z AUTO 15007KT 1/2SM FZFG VV001 M01/M02 A3020 RMK AO2 SLP255 T10111022 $
KMFR 
19nm E 
160453Z AUTO 00000KT 10SM OVC027 03/01 A3030 RMK AO2 SLP269 T00280011
TAF
KMFR 
19nm E 
160256Z 1603/1624 VRB03KT P6SM SCT030 BKN200 FM160500 00000KT 5SM BR SCT002 FM160900 05001KT 1/2SM FZFG OVC002 FM162000 36002KT P6SM FEW100
NOTAMs
Click for the latest NOTAMs
NOTAMs are issued by the DoD/FAA and will open in a separate window not controlled by AirNav.

 

 
 

Would you like to see your business listed on this page?

 If your business provides an interesting product or service to pilots, flight crews, aircraft, or users of the Jantzer Heliport, you should consider listing it here.  To start the listing process, click on the button below
 
Add a business
 

Other Pages about Jantzer Heliport

Update a link
 
Copyright © AirNav, LLC. All rights reserved. Privacy Policy  Contact